createdAt,value
2023-04-30T00:00:22.363Z,11.70
2023-04-30T00:01:22.298Z,11.70
2023-04-30T00:02:22.395Z,12.30
2023-04-30T00:03:22.303Z,11.50
2023-04-30T00:04:22.406Z,11.40
2023-04-30T00:05:22.261Z,11.50
2023-04-30T00:06:22.367Z,11.50
2023-04-30T00:07:22.250Z,11.30
2023-04-30T00:08:22.249Z,11.30
2023-04-30T00:09:22.223Z,11.00
2023-04-30T00:10:22.219Z,12.00
2023-04-30T00:11:22.188Z,11.30
2023-04-30T00:12:22.236Z,10.20
2023-04-30T00:13:22.166Z,10.60
2023-04-30T00:14:22.198Z,10.50
2023-04-30T00:15:22.159Z,10.30
2023-04-30T00:16:22.261Z,10.00
2023-04-30T00:17:22.137Z,10.80
2023-04-30T00:18:22.318Z,12.30
2023-04-30T00:19:22.122Z,12.40
2023-04-30T00:20:22.138Z,13.20
2023-04-30T00:21:22.093Z,10.90
2023-04-30T00:22:22.106Z,10.50
2023-04-30T00:23:22.069Z,10.70
2023-04-30T00:24:22.099Z,11.00
2023-04-30T00:25:22.049Z,11.70
2023-04-30T00:26:22.063Z,12.20
2023-04-30T00:27:22.032Z,11.60
2023-04-30T00:28:22.065Z,11.10
2023-04-30T00:29:22.033Z,11.50
2023-04-30T00:30:22.049Z,12.20
2023-04-30T00:31:21.995Z,11.40
2023-04-30T00:32:22.337Z,11.00
2023-04-30T00:33:21.971Z,11.00
2023-04-30T00:34:21.978Z,10.80
2023-04-30T00:35:21.944Z,11.30
2023-04-30T00:36:21.971Z,10.80
2023-04-30T00:37:21.919Z,10.70
2023-04-30T00:38:21.930Z,11.80
2023-04-30T00:39:21.896Z,11.50
2023-04-30T00:40:21.924Z,11.40
2023-04-30T00:41:21.887Z,12.10
2023-04-30T00:42:21.919Z,11.80
2023-04-30T00:43:21.861Z,11.90
2023-04-30T00:44:21.888Z,12.20
2023-04-30T00:45:21.836Z,11.50
2023-04-30T00:46:21.946Z,12.00
2023-04-30T00:47:21.854Z,12.00
2023-04-30T00:48:21.853Z,12.20
2023-04-30T00:49:21.793Z,11.80
2023-04-30T00:50:21.811Z,11.40
2023-04-30T00:51:21.776Z,11.40
2023-04-30T00:52:21.800Z,11.10
2023-04-30T00:53:21.758Z,10.90
2023-04-30T00:54:21.827Z,10.40
2023-04-30T00:55:21.735Z,11.90
2023-04-30T00:56:21.746Z,11.90
2023-04-30T00:57:21.713Z,11.60
2023-04-30T00:58:21.730Z,11.60
2023-04-30T00:59:21.701Z,11.60
2023-04-30T01:00:21.741Z,11.70
2023-04-30T01:01:21.697Z,12.70
2023-04-30T01:02:21.788Z,11.90
2023-04-30T01:03:21.763Z,12.70
2023-04-30T01:04:21.672Z,12.80
2023-04-30T01:05:21.650Z,11.40
2023-04-30T01:06:21.706Z,11.30
2023-04-30T01:07:21.603Z,10.80
2023-04-30T01:08:21.638Z,11.00
2023-04-30T01:09:21.608Z,12.10
2023-04-30T01:10:21.611Z,11.50
2023-04-30T01:11:21.573Z,11.50
2023-04-30T01:12:21.629Z,12.60
2023-04-30T01:13:21.548Z,13.30
2023-04-30T01:14:21.558Z,12.80
2023-04-30T01:15:21.527Z,12.90
2023-04-30T01:16:21.580Z,11.60
2023-04-30T01:17:21.505Z,12.00
2023-04-30T01:18:21.642Z,12.10
2023-04-30T01:19:21.486Z,11.00
2023-04-30T01:20:21.503Z,11.50
2023-04-30T01:21:21.511Z,11.60
2023-04-30T01:22:21.460Z,10.60
2023-04-30T01:23:21.462Z,11.10
2023-04-30T01:24:21.459Z,11.00
2023-04-30T01:25:21.459Z,11.60
2023-04-30T01:26:21.412Z,11.40
2023-04-30T01:27:21.444Z,10.80
2023-04-30T01:28:21.384Z,10.90
2023-04-30T01:29:21.405Z,11.50
2023-04-30T01:30:21.410Z,11.90
2023-04-30T01:31:21.441Z,12.10
2023-04-30T01:32:21.359Z,12.20
2023-04-30T01:33:21.361Z,12.30
2023-04-30T01:34:21.337Z,12.10
2023-04-30T01:35:21.353Z,12.20
2023-04-30T01:36:21.340Z,13.30
2023-04-30T01:37:21.323Z,12.50
2023-04-30T01:38:21.284Z,13.20
2023-04-30T01:39:21.328Z,13.00
2023-04-30T01:40:21.275Z,12.20
2023-04-30T01:41:21.286Z,11.60
2023-04-30T01:42:21.281Z,11.30
2023-04-30T01:43:21.270Z,11.50
2023-04-30T01:44:21.229Z,11.50
2023-04-30T01:45:21.239Z,12.00
2023-04-30T01:46:21.254Z,12.20
2023-04-30T01:47:21.240Z,12.40
2023-04-30T01:48:21.215Z,11.90
2023-04-30T01:49:21.203Z,11.60
2023-04-30T01:50:21.194Z,12.40
2023-04-30T01:51:21.194Z,11.90
2023-04-30T01:52:21.141Z,12.50
2023-04-30T01:53:21.172Z,13.00
2023-04-30T01:54:21.148Z,13.20
2023-04-30T01:55:21.145Z,14.70
2023-04-30T01:56:21.100Z,13.90
2023-04-30T01:57:21.125Z,12.40
2023-04-30T01:58:21.084Z,12.90
2023-04-30T01:59:21.093Z,13.50
2023-04-30T02:00:21.083Z,12.70
2023-04-30T02:01:21.084Z,13.00
2023-04-30T02:02:21.101Z,13.40
2023-04-30T02:03:21.156Z,12.50
2023-04-30T02:04:21.020Z,13.40
2023-04-30T02:05:21.037Z,13.80
2023-04-30T02:06:21.070Z,13.30
2023-04-30T02:07:21.012Z,13.30
2023-04-30T02:08:20.980Z,14.70
2023-04-30T02:09:20.994Z,13.70
2023-04-30T02:10:20.961Z,13.30
2023-04-30T02:11:20.968Z,13.60
2023-04-30T02:12:20.963Z,13.60
2023-04-30T02:13:20.945Z,13.20
2023-04-30T02:14:20.919Z,13.20
2023-04-30T02:15:20.929Z,13.10
2023-04-30T02:16:20.928Z,13.40
2023-04-30T02:17:20.907Z,14.20
2023-04-30T02:18:20.925Z,13.80
2023-04-30T02:19:20.886Z,14.80
2023-04-30T02:20:20.869Z,14.90
2023-04-30T02:21:20.863Z,14.40
2023-04-30T02:22:20.825Z,14.10
2023-04-30T02:23:20.845Z,13.90
2023-04-30T02:24:20.832Z,13.80
2023-04-30T02:25:20.826Z,14.00
2023-04-30T02:26:20.795Z,14.70
2023-04-30T02:27:20.801Z,14.00
2023-04-30T02:28:20.763Z,13.70
2023-04-30T02:29:20.791Z,13.90
2023-04-30T02:30:20.773Z,15.50
2023-04-30T02:31:20.798Z,13.60
2023-04-30T02:32:20.733Z,14.30
2023-04-30T02:33:20.737Z,13.80
2023-04-30T02:34:20.710Z,12.40
2023-04-30T02:35:20.713Z,11.80
2023-04-30T02:36:20.719Z,11.90
2023-04-30T02:37:20.707Z,11.40
2023-04-30T02:38:20.682Z,11.60
2023-04-30T02:39:20.675Z,11.40
2023-04-30T02:40:20.641Z,12.00
2023-04-30T02:41:20.680Z,11.90
2023-04-30T02:42:20.659Z,12.30
2023-04-30T02:43:20.634Z,12.10
2023-04-30T02:44:20.601Z,12.30
2023-04-30T02:45:20.629Z,12.50
2023-04-30T02:46:20.671Z,12.60
2023-04-30T02:47:20.610Z,13.10
2023-04-30T02:48:20.620Z,13.00
2023-04-30T02:49:20.582Z,12.80
2023-04-30T02:50:20.544Z,13.20
2023-04-30T02:51:20.565Z,12.40
2023-04-30T02:52:20.526Z,12.60
2023-04-30T02:53:20.538Z,12.70
2023-04-30T02:54:20.533Z,12.60
2023-04-30T02:55:20.549Z,13.30
2023-04-30T02:56:20.482Z,13.60
2023-04-30T02:57:20.488Z,13.00
2023-04-30T02:58:20.461Z,13.70
2023-04-30T02:59:20.473Z,14.10
2023-04-30T03:00:20.463Z,15.20
2023-04-30T03:01:20.495Z,14.00
2023-04-30T03:02:20.464Z,13.90
2023-04-30T03:03:20.632Z,13.50
2023-04-30T03:04:20.398Z,13.90
2023-04-30T03:05:20.417Z,13.50
2023-04-30T03:06:20.446Z,13.30
2023-04-30T03:07:20.392Z,13.30
2023-04-30T03:08:20.356Z,13.90
2023-04-30T03:09:20.445Z,13.60
2023-04-30T03:10:20.350Z,13.60
2023-04-30T03:11:20.343Z,13.80
2023-04-30T03:12:20.337Z,14.10
2023-04-30T03:13:20.324Z,14.00
2023-04-30T03:14:20.295Z,13.80
2023-04-30T03:15:20.299Z,13.80
2023-04-30T03:16:20.266Z,14.80
2023-04-30T03:17:20.337Z,12.70
2023-04-30T03:18:20.277Z,12.90
2023-04-30T03:19:20.257Z,11.80
2023-04-30T03:20:20.228Z,13.30
2023-04-30T03:21:20.253Z,13.50
2023-04-30T03:22:20.217Z,14.00
2023-04-30T03:23:20.227Z,14.20
2023-04-30T03:24:20.215Z,13.60
2023-04-30T03:25:20.209Z,14.40
2023-04-30T03:26:20.175Z,13.80
2023-04-30T03:27:20.179Z,14.40
2023-04-30T03:28:20.146Z,14.00
2023-04-30T03:29:20.172Z,15.10
2023-04-30T03:30:20.164Z,15.50
2023-04-30T03:31:20.203Z,14.50
2023-04-30T03:32:20.110Z,14.40
2023-04-30T03:33:20.167Z,13.60
2023-04-30T03:34:20.088Z,13.10
2023-04-30T03:35:20.112Z,13.10
2023-04-30T03:36:20.083Z,13.40
2023-04-30T03:37:20.089Z,13.30
2023-04-30T03:38:20.052Z,14.30
2023-04-30T03:39:20.073Z,13.30
2023-04-30T03:40:20.020Z,14.30
2023-04-30T03:41:20.080Z,14.80
2023-04-30T03:42:20.031Z,14.40
2023-04-30T03:43:20.039Z,14.80
2023-04-30T03:44:20.007Z,14.40
2023-04-30T03:45:20.019Z,13.50
2023-04-30T03:46:19.985Z,14.30
2023-04-30T03:47:19.989Z,14.80
2023-04-30T03:48:19.966Z,15.20
2023-04-30T03:49:19.965Z,14.20
2023-04-30T03:50:19.949Z,14.50
2023-04-30T03:51:19.943Z,14.10
2023-04-30T03:52:19.910Z,15.70
2023-04-30T03:53:19.940Z,14.90
2023-04-30T03:54:19.886Z,14.40
2023-04-30T03:55:19.901Z,13.80
2023-04-30T03:56:19.882Z,14.10
2023-04-30T03:57:19.886Z,14.30
2023-04-30T03:58:19.845Z,14.70
2023-04-30T03:59:19.882Z,14.50
2023-04-30T04:00:19.828Z,13.70
2023-04-30T04:01:19.836Z,14.30
2023-04-30T04:02:19.842Z,13.60
2023-04-30T04:03:19.925Z,15.00
2023-04-30T04:04:19.895Z,14.00
2023-04-30T04:05:19.796Z,14.70
2023-04-30T04:06:19.813Z,14.80
2023-04-30T04:07:19.788Z,14.40
2023-04-30T04:08:19.766Z,15.10
2023-04-30T04:09:19.802Z,16.30
2023-04-30T04:10:19.742Z,15.10
2023-04-30T04:11:19.741Z,16.30
2023-04-30T04:12:19.710Z,15.70
2023-04-30T04:13:19.723Z,15.90
2023-04-30T04:14:19.706Z,17.20
2023-04-30T04:15:19.734Z,17.50
2023-04-30T04:16:19.696Z,17.10
2023-04-30T04:17:19.711Z,17.10
2023-04-30T04:18:19.638Z,18.20
2023-04-30T04:19:19.683Z,17.60
2023-04-30T04:20:19.623Z,17.50
2023-04-30T04:21:19.637Z,17.00
2023-04-30T04:22:19.607Z,17.70
2023-04-30T04:23:19.627Z,17.00
2023-04-30T04:24:19.589Z,18.20
2023-04-30T04:25:19.598Z,17.80
2023-04-30T04:26:19.607Z,18.20
2023-04-30T04:27:19.588Z,17.50
2023-04-30T04:28:19.542Z,17.70
2023-04-30T04:29:19.570Z,18.00
2023-04-30T04:30:19.526Z,17.30
2023-04-30T04:31:19.589Z,16.60
2023-04-30T04:32:19.508Z,17.90
2023-04-30T04:33:19.529Z,17.50
2023-04-30T04:34:19.488Z,17.30
2023-04-30T04:35:19.505Z,17.10
2023-04-30T04:36:19.488Z,16.60
2023-04-30T04:37:19.500Z,16.50
2023-04-30T04:38:19.471Z,17.40
2023-04-30T04:39:19.472Z,16.00
2023-04-30T04:40:19.442Z,16.20
2023-04-30T04:41:19.445Z,15.50
2023-04-30T04:42:19.398Z,16.20
2023-04-30T04:43:19.408Z,15.80
2023-04-30T04:44:19.401Z,15.20
2023-04-30T04:45:19.395Z,16.60
2023-04-30T04:46:19.355Z,15.50
2023-04-30T04:47:19.381Z,15.90
2023-04-30T04:48:19.343Z,16.40
2023-04-30T04:49:19.336Z,15.30
2023-04-30T04:50:19.317Z,15.90
2023-04-30T04:51:19.323Z,16.40
2023-04-30T04:52:19.303Z,15.40
2023-04-30T04:53:19.296Z,15.40
2023-04-30T04:54:19.282Z,15.40
2023-04-30T04:55:19.276Z,15.20
2023-04-30T04:56:19.245Z,15.80
2023-04-30T04:57:19.254Z,15.70
2023-04-30T04:58:19.258Z,16.20
2023-04-30T04:59:19.262Z,15.20
2023-04-30T05:00:19.208Z,14.80
2023-04-30T05:01:19.260Z,15.70
2023-04-30T05:02:19.181Z,15.70
2023-04-30T05:03:19.321Z,15.60
2023-04-30T05:04:19.193Z,15.70
2023-04-30T05:05:19.187Z,16.10
2023-04-30T05:06:19.203Z,15.10
2023-04-30T05:07:19.154Z,16.20
2023-04-30T05:08:19.130Z,15.20
2023-04-30T05:09:19.148Z,16.20
2023-04-30T05:10:19.139Z,17.30
2023-04-30T05:11:19.120Z,16.50
2023-04-30T05:12:19.092Z,17.60
2023-04-30T05:13:19.088Z,16.30
2023-04-30T05:14:19.065Z,17.10
2023-04-30T05:15:19.105Z,17.10
2023-04-30T05:16:19.107Z,16.20
2023-04-30T05:17:19.062Z,16.40
2023-04-30T05:18:19.044Z,16.50
2023-04-30T05:19:19.046Z,16.80
2023-04-30T05:20:19.015Z,16.70
2023-04-30T05:21:19.043Z,15.70
2023-04-30T05:22:18.973Z,17.20
2023-04-30T05:23:18.987Z,14.90
2023-04-30T05:24:18.963Z,14.40
2023-04-30T05:25:18.988Z,13.60
2023-04-30T05:26:18.927Z,12.60
2023-04-30T05:27:18.959Z,13.40
2023-04-30T05:28:18.919Z,12.20
2023-04-30T05:29:18.926Z,11.80
2023-04-30T05:30:18.909Z,11.40
2023-04-30T05:31:20.758Z,12.40
2023-04-30T05:32:18.884Z,10.40
2023-04-30T05:33:18.902Z,11.40
2023-04-30T05:34:19.078Z,12.20
2023-04-30T05:35:18.871Z,11.20
2023-04-30T05:36:18.908Z,11.60
2023-04-30T05:37:18.836Z,10.70
2023-04-30T05:38:18.879Z,11.00
2023-04-30T05:39:18.808Z,10.90
2023-04-30T05:40:18.816Z,11.40
2023-04-30T05:41:18.777Z,10.80
2023-04-30T05:42:18.812Z,12.00
2023-04-30T05:43:18.828Z,11.40
2023-04-30T05:44:18.780Z,12.20
2023-04-30T05:45:18.760Z,13.30
2023-04-30T05:46:18.803Z,13.00
2023-04-30T05:47:18.804Z,13.00
2023-04-30T05:48:18.765Z,12.60
2023-04-30T05:49:18.731Z,13.30
2023-04-30T05:50:18.752Z,13.00
2023-04-30T05:51:18.686Z,13.40
2023-04-30T05:52:18.692Z,14.60
2023-04-30T05:53:18.655Z,14.10
2023-04-30T05:54:18.686Z,16.40
2023-04-30T05:55:18.642Z,15.50
2023-04-30T05:56:18.651Z,15.90
2023-04-30T05:57:18.618Z,16.20
2023-04-30T05:58:18.671Z,15.50
2023-04-30T05:59:18.602Z,15.60
2023-04-30T06:00:18.630Z,16.60
2023-04-30T06:01:18.587Z,16.60
2023-04-30T06:02:18.697Z,16.30
2023-04-30T06:03:18.576Z,15.80
2023-04-30T06:04:18.579Z,16.60
2023-04-30T06:05:18.592Z,17.20
2023-04-30T06:06:18.578Z,18.80
2023-04-30T06:07:18.520Z,16.70
2023-04-30T06:08:18.527Z,15.90
2023-04-30T06:09:18.495Z,18.90
2023-04-30T06:10:18.529Z,16.80
2023-04-30T06:11:18.478Z,17.10
2023-04-30T06:12:18.483Z,15.80
2023-04-30T06:13:18.483Z,16.10
2023-04-30T06:14:18.457Z,16.20
2023-04-30T06:15:18.481Z,15.80
2023-04-30T06:16:18.502Z,15.30
2023-04-30T06:17:18.423Z,17.00
2023-04-30T06:18:18.430Z,14.80
2023-04-30T06:19:18.393Z,16.30
2023-04-30T06:20:18.400Z,16.00
2023-04-30T06:21:18.361Z,16.60
2023-04-30T06:22:18.392Z,14.70
2023-04-30T06:23:18.343Z,18.20
2023-04-30T06:24:18.397Z,15.30
2023-04-30T06:25:18.325Z,14.00
2023-04-30T06:26:18.346Z,14.40
2023-04-30T06:27:18.335Z,14.90
2023-04-30T06:28:18.313Z,16.20
2023-04-30T06:29:18.285Z,15.10
2023-04-30T06:30:18.310Z,15.00
2023-04-30T06:31:18.316Z,15.80
2023-04-30T06:32:18.281Z,14.70
2023-04-30T06:33:18.272Z,14.20
2023-04-30T06:34:18.262Z,14.70
2023-04-30T06:35:18.251Z,14.10
2023-04-30T06:36:18.230Z,14.10
2023-04-30T06:37:18.209Z,15.00
2023-04-30T06:38:18.254Z,13.90
2023-04-30T06:39:18.178Z,13.80
2023-04-30T06:40:18.201Z,15.00
2023-04-30T06:41:18.158Z,14.60
2023-04-30T06:42:18.197Z,13.90
2023-04-30T06:43:18.148Z,13.50
2023-04-30T06:44:18.157Z,13.70
2023-04-30T06:45:18.117Z,14.20
2023-04-30T06:46:18.143Z,13.30
2023-04-30T06:47:18.084Z,13.50
2023-04-30T06:48:18.095Z,13.00
2023-04-30T06:49:18.102Z,12.80
2023-04-30T06:50:18.082Z,13.40
2023-04-30T06:51:18.088Z,12.80
2023-04-30T06:52:18.066Z,12.50
2023-04-30T06:53:18.041Z,13.30
2023-04-30T06:54:18.040Z,12.80
2023-04-30T06:55:18.024Z,13.00
2023-04-30T06:56:18.015Z,13.80
2023-04-30T06:57:17.988Z,13.00
2023-04-30T06:58:18.010Z,12.70
2023-04-30T06:59:17.966Z,13.00
2023-04-30T07:00:17.993Z,12.60
2023-04-30T07:01:17.990Z,12.30
2023-04-30T07:02:19.370Z,12.10
2023-04-30T07:03:18.052Z,11.70
2023-04-30T07:04:17.937Z,13.10
2023-04-30T07:05:17.895Z,12.80
2023-04-30T07:06:17.971Z,11.70
2023-04-30T07:07:17.887Z,13.00
2023-04-30T07:08:17.898Z,13.20
2023-04-30T07:09:17.857Z,11.30
2023-04-30T07:10:17.891Z,11.70
2023-04-30T07:11:17.862Z,10.70
2023-04-30T07:12:17.841Z,11.10
2023-04-30T07:13:17.809Z,10.90
2023-04-30T07:14:17.829Z,11.80
2023-04-30T07:15:17.798Z,10.60
2023-04-30T07:16:17.838Z,10.80
2023-04-30T07:17:17.819Z,12.90
2023-04-30T07:18:17.784Z,10.10
2023-04-30T07:19:17.771Z,10.30
2023-04-30T07:20:17.768Z,10.10
2023-04-30T07:21:17.758Z,10.40
2023-04-30T07:22:17.762Z,11.10
2023-04-30T07:23:17.714Z,9.60
2023-04-30T07:24:17.748Z,10.30
2023-04-30T07:25:17.677Z,8.40
2023-04-30T07:26:17.736Z,8.30
2023-04-30T07:27:17.671Z,7.50
2023-04-30T07:28:17.694Z,7.50
2023-04-30T07:29:17.644Z,7.90
2023-04-30T07:30:17.665Z,9.10
2023-04-30T07:31:17.652Z,8.80
2023-04-30T07:32:17.691Z,9.30
2023-04-30T07:33:17.662Z,10.10
2023-04-30T07:34:17.610Z,10.60
2023-04-30T07:35:17.578Z,9.70
2023-04-30T07:36:17.599Z,10.00
2023-04-30T07:37:17.566Z,9.50
2023-04-30T07:38:17.558Z,10.10
2023-04-30T07:39:17.547Z,9.20
2023-04-30T07:40:28.655Z,9.40
2023-04-30T07:41:17.534Z,9.50
2023-04-30T07:42:17.550Z,8.50
2023-04-30T07:43:17.522Z,10.40
2023-04-30T07:44:17.635Z,8.60
2023-04-30T07:45:17.470Z,8.70
2023-04-30T07:46:17.536Z,8.90
2023-04-30T07:47:17.454Z,9.40
2023-04-30T07:48:17.491Z,9.10
2023-04-30T07:49:17.446Z,8.10
2023-04-30T07:50:17.451Z,8.10
2023-04-30T07:51:17.418Z,8.10
2023-04-30T07:52:17.427Z,8.40
2023-04-30T07:53:17.384Z,7.90
2023-04-30T07:54:17.405Z,8.50
2023-04-30T07:55:17.422Z,7.70
2023-04-30T07:56:17.382Z,8.50
2023-04-30T07:57:17.383Z,7.80
2023-04-30T07:58:17.383Z,7.30
2023-04-30T07:59:17.352Z,8.40
2023-04-30T08:00:17.353Z,7.90
2023-04-30T08:01:17.312Z,8.00
2023-04-30T08:02:17.406Z,7.80
2023-04-30T08:03:17.328Z,7.60
2023-04-30T08:04:17.328Z,8.00
2023-04-30T08:05:17.275Z,8.80
2023-04-30T08:06:17.357Z,7.00
2023-04-30T08:07:17.289Z,8.00
2023-04-30T08:08:17.249Z,7.60
2023-04-30T08:09:17.238Z,8.20
2023-04-30T08:10:17.235Z,7.90
2023-04-30T08:11:17.199Z,6.90
2023-04-30T08:12:17.250Z,7.40
2023-04-30T08:13:17.177Z,8.50
2023-04-30T08:14:17.196Z,7.60
2023-04-30T08:15:17.156Z,7.70
2023-04-30T08:16:17.196Z,7.80
2023-04-30T08:17:17.156Z,7.90
2023-04-30T08:18:17.376Z,8.30
2023-04-30T08:19:17.108Z,7.80
2023-04-30T08:20:17.137Z,7.50
2023-04-30T08:21:17.108Z,8.00
2023-04-30T08:22:17.124Z,8.30
2023-04-30T08:23:17.127Z,8.10
2023-04-30T08:24:17.083Z,7.80
2023-04-30T08:25:17.068Z,8.70
2023-04-30T08:26:17.061Z,7.60
2023-04-30T08:27:17.060Z,7.90
2023-04-30T08:28:17.061Z,8.30
2023-04-30T08:29:17.024Z,8.40
2023-04-30T08:30:17.025Z,7.20
2023-04-30T08:31:17.071Z,6.50
2023-04-30T08:32:17.071Z,6.60
2023-04-30T08:33:16.999Z,6.60
2023-04-30T08:34:16.999Z,6.90
2023-04-30T08:35:16.961Z,7.50
2023-04-30T08:36:16.970Z,6.00
2023-04-30T08:37:16.925Z,6.60
2023-04-30T08:38:16.938Z,6.70
2023-04-30T08:39:16.936Z,6.70
2023-04-30T08:40:16.923Z,6.50
2023-04-30T08:41:16.909Z,6.50
2023-04-30T08:42:16.908Z,6.40
2023-04-30T08:43:16.864Z,8.20
2023-04-30T08:44:16.889Z,6.30
2023-04-30T08:45:16.850Z,5.50
2023-04-30T08:46:16.961Z,6.40
2023-04-30T08:47:16.822Z,6.00
2023-04-30T08:48:16.872Z,5.80
2023-04-30T08:49:17.038Z,6.90
2023-04-30T08:50:16.851Z,6.20
2023-04-30T08:51:16.814Z,6.50
2023-04-30T08:52:16.801Z,6.40
2023-04-30T08:53:16.761Z,6.00
2023-04-30T08:54:16.772Z,6.00
2023-04-30T08:55:16.742Z,6.30
2023-04-30T08:56:16.801Z,7.80
2023-04-30T08:57:16.715Z,6.70
2023-04-30T08:58:16.721Z,6.20
2023-04-30T08:59:16.715Z,6.10
2023-04-30T09:00:16.708Z,6.40
2023-04-30T09:01:16.712Z,7.00
2023-04-30T09:02:16.699Z,6.90
2023-04-30T09:03:16.738Z,7.20
2023-04-30T09:04:16.666Z,7.40
2023-04-30T09:05:16.659Z,7.60
2023-04-30T09:06:16.889Z,7.70
2023-04-30T09:07:16.621Z,7.20
2023-04-30T09:08:16.619Z,6.90
2023-04-30T09:09:16.582Z,7.10
2023-04-30T09:10:16.620Z,7.60
2023-04-30T09:11:16.568Z,6.60
2023-04-30T09:12:18.603Z,6.70
2023-04-30T09:13:16.566Z,6.70
2023-04-30T09:14:16.561Z,6.60
2023-04-30T09:15:16.519Z,6.80
2023-04-30T09:16:16.589Z,6.50
2023-04-30T09:17:16.499Z,6.80
2023-04-30T09:18:16.574Z,6.10
2023-04-30T09:19:16.476Z,6.40
2023-04-30T09:20:16.513Z,6.70
2023-04-30T09:21:16.470Z,6.00
2023-04-30T09:22:16.469Z,6.50
2023-04-30T09:23:16.456Z,5.90
2023-04-30T09:24:17.956Z,6.40
2023-04-30T09:25:16.420Z,7.10
2023-04-30T09:26:17.040Z,6.50
2023-04-30T09:27:16.444Z,5.90
2023-04-30T09:28:16.415Z,6.00
2023-04-30T09:29:16.399Z,6.20
2023-04-30T09:30:16.394Z,6.10
2023-04-30T09:31:16.392Z,6.10
2023-04-30T09:32:16.385Z,5.90
2023-04-30T09:33:16.348Z,5.70
2023-04-30T09:34:16.371Z,6.50
2023-04-30T09:35:16.334Z,5.80
2023-04-30T09:36:16.333Z,5.70
2023-04-30T09:37:16.305Z,5.40
2023-04-30T09:38:16.343Z,5.40
2023-04-30T09:39:16.392Z,5.70
2023-04-30T09:40:16.337Z,5.50
2023-04-30T09:41:16.259Z,6.70
2023-04-30T09:42:16.268Z,5.50
2023-04-30T09:43:16.234Z,5.70
2023-04-30T09:44:16.246Z,5.90
2023-04-30T09:45:16.256Z,5.70
2023-04-30T09:46:16.310Z,5.70
2023-04-30T09:47:16.243Z,5.40
2023-04-30T09:48:17.455Z,5.60
2023-04-30T09:49:16.178Z,5.40
2023-04-30T09:50:16.225Z,5.30
2023-04-30T09:51:16.166Z,5.20
2023-04-30T09:52:16.147Z,5.10
2023-04-30T09:53:16.162Z,5.20
2023-04-30T09:54:16.128Z,5.40
2023-04-30T09:55:16.195Z,5.30
2023-04-30T09:56:16.118Z,5.30
2023-04-30T09:57:16.128Z,5.30
2023-04-30T09:58:16.088Z,5.40
2023-04-30T09:59:16.100Z,5.70
2023-04-30T10:00:16.153Z,5.60
2023-04-30T10:01:16.153Z,5.50
2023-04-30T10:02:16.074Z,5.70
2023-04-30T10:03:16.052Z,5.90
2023-04-30T10:04:16.096Z,5.10
2023-04-30T10:05:16.065Z,4.90
2023-04-30T10:06:16.066Z,5.00
2023-04-30T10:07:17.119Z,5.20
2023-04-30T10:08:15.995Z,4.80
2023-04-30T10:09:16.005Z,5.00
2023-04-30T10:10:16.004Z,5.20
2023-04-30T10:11:15.993Z,5.20
2023-04-30T10:12:15.953Z,5.00
2023-04-30T10:13:15.967Z,7.10
2023-04-30T10:14:15.922Z,4.90
2023-04-30T10:15:15.933Z,4.90
2023-04-30T10:16:15.947Z,5.10
2023-04-30T10:17:15.929Z,5.50
2023-04-30T10:18:15.887Z,5.10
2023-04-30T10:19:16.711Z,5.30
2023-04-30T10:20:15.867Z,5.20
2023-04-30T10:21:15.900Z,4.80
2023-04-30T10:22:15.835Z,4.60
2023-04-30T10:23:15.851Z,3.90
2023-04-30T10:24:15.832Z,3.90
2023-04-30T10:25:15.840Z,4.30
2023-04-30T10:26:15.797Z,4.90
2023-04-30T10:27:15.850Z,5.20
2023-04-30T10:28:15.778Z,5.10
2023-04-30T10:29:15.810Z,5.10
2023-04-30T10:30:15.765Z,7.10
2023-04-30T10:31:15.765Z,5.00
2023-04-30T10:32:15.821Z,4.00
2023-04-30T10:33:16.682Z,3.90
2023-04-30T10:34:15.717Z,4.00
2023-04-30T10:35:15.764Z,3.90
2023-04-30T10:36:15.701Z,3.70
2023-04-30T10:37:15.704Z,4.20
2023-04-30T10:38:15.702Z,4.10
2023-04-30T10:39:15.696Z,3.90
2023-04-30T10:40:15.682Z,4.20
2023-04-30T10:41:15.668Z,4.10
2023-04-30T10:42:15.660Z,3.90
2023-04-30T10:43:15.650Z,4.10
2023-04-30T10:44:15.643Z,4.10
2023-04-30T10:45:15.628Z,3.90
2023-04-30T10:46:15.684Z,4.10
2023-04-30T10:47:15.611Z,4.10
2023-04-30T10:48:15.618Z,4.40
2023-04-30T10:49:15.622Z,4.20
2023-04-30T10:50:15.556Z,4.40
2023-04-30T10:51:15.618Z,4.20
2023-04-30T10:52:15.545Z,4.40
2023-04-30T10:53:15.544Z,4.00
2023-04-30T10:54:15.524Z,3.70
2023-04-30T10:55:15.526Z,3.60
2023-04-30T10:56:15.500Z,4.00
2023-04-30T10:57:15.694Z,4.00
2023-04-30T10:58:15.477Z,4.00
2023-04-30T10:59:15.483Z,4.20
2023-04-30T11:00:15.458Z,4.50
2023-04-30T11:01:15.553Z,4.20
2023-04-30T11:02:15.691Z,4.40
2023-04-30T11:03:15.453Z,3.90
2023-04-30T11:04:15.500Z,4.50
2023-04-30T11:05:15.471Z,4.00
2023-04-30T11:06:15.423Z,3.90
2023-04-30T11:07:15.429Z,4.30
2023-04-30T11:08:15.391Z,3.70
2023-04-30T11:09:15.387Z,3.70
2023-04-30T11:10:15.369Z,4.10
2023-04-30T11:11:15.400Z,4.60
2023-04-30T11:12:15.345Z,4.10
2023-04-30T11:13:15.411Z,4.00
2023-04-30T11:14:15.312Z,4.20
2023-04-30T11:15:15.369Z,3.60
2023-04-30T11:16:15.355Z,4.10
2023-04-30T11:17:15.321Z,3.90
2023-04-30T11:18:15.284Z,3.80
2023-04-30T11:19:15.322Z,3.80
2023-04-30T11:20:15.261Z,4.00
2023-04-30T11:21:15.271Z,4.00
2023-04-30T11:22:15.242Z,3.70
2023-04-30T11:23:19.572Z,4.00
2023-04-30T11:24:15.302Z,3.90
2023-04-30T11:25:15.265Z,3.70
2023-04-30T11:26:15.248Z,3.60
2023-04-30T11:27:15.243Z,3.90
2023-04-30T11:28:15.185Z,3.80
2023-04-30T11:29:15.284Z,3.40
2023-04-30T11:30:15.341Z,4.00
2023-04-30T11:31:15.591Z,4.00
2023-04-30T11:32:15.144Z,3.60
2023-04-30T11:33:15.157Z,3.70
2023-04-30T11:34:15.122Z,3.60
2023-04-30T11:35:15.181Z,3.60
2023-04-30T11:36:15.103Z,3.40
2023-04-30T11:37:15.131Z,3.00
2023-04-30T11:38:15.083Z,3.50
2023-04-30T11:39:15.110Z,3.40
2023-04-30T11:40:15.096Z,3.20
2023-04-30T11:41:15.106Z,3.40
2023-04-30T11:42:15.054Z,3.70
2023-04-30T11:43:15.064Z,3.50
2023-04-30T11:44:15.059Z,3.20
2023-04-30T11:45:15.038Z,3.40
2023-04-30T11:46:15.074Z,3.30
2023-04-30T11:47:15.033Z,3.20
2023-04-30T11:48:14.985Z,3.10
2023-04-30T11:49:15.000Z,3.50
2023-04-30T11:50:14.973Z,2.90
2023-04-30T11:51:15.011Z,2.80
2023-04-30T11:52:14.962Z,2.70
2023-04-30T11:53:14.967Z,2.70
2023-04-30T11:54:14.926Z,2.90
2023-04-30T11:55:14.967Z,3.40
2023-04-30T11:56:14.920Z,3.80
2023-04-30T11:57:14.937Z,3.10
2023-04-30T11:58:14.891Z,3.10
2023-04-30T11:59:14.923Z,3.10
2023-04-30T12:00:14.892Z,3.10
2023-04-30T12:01:14.889Z,3.00
2023-04-30T12:02:14.892Z,2.80
2023-04-30T12:03:14.942Z,2.90
2023-04-30T12:04:14.946Z,2.80
2023-04-30T12:05:14.842Z,3.00
2023-04-30T12:06:14.830Z,3.00
2023-04-30T12:07:14.824Z,2.70
2023-04-30T12:08:14.808Z,2.40
2023-04-30T12:09:14.814Z,2.60
2023-04-30T12:10:14.804Z,2.50
2023-04-30T12:11:14.784Z,2.50
2023-04-30T12:12:14.750Z,2.60
2023-04-30T12:13:14.808Z,2.40
2023-04-30T12:14:14.746Z,2.40
2023-04-30T12:15:14.748Z,2.50
2023-04-30T12:16:14.804Z,2.70
2023-04-30T12:17:14.731Z,2.60
2023-04-30T12:18:14.687Z,2.70
2023-04-30T12:19:14.742Z,2.40
2023-04-30T12:20:14.696Z,2.50
2023-04-30T12:21:14.696Z,2.60
2023-04-30T12:22:14.664Z,2.70
2023-04-30T12:23:14.675Z,2.20
2023-04-30T12:24:14.637Z,2.30
2023-04-30T12:25:14.668Z,2.40
2023-04-30T12:26:14.613Z,2.60
2023-04-30T12:27:14.629Z,2.40
2023-04-30T12:28:14.590Z,2.40
2023-04-30T12:29:15.640Z,2.30
2023-04-30T12:30:14.608Z,2.10
2023-04-30T12:31:14.604Z,2.10
2023-04-30T12:32:14.597Z,1.90
2023-04-30T12:33:14.706Z,2.10
2023-04-30T12:34:14.531Z,2.00
2023-04-30T12:35:14.547Z,1.80
2023-04-30T12:36:14.560Z,2.00
2023-04-30T12:37:14.531Z,2.10
2023-04-30T12:38:14.509Z,2.20
2023-04-30T12:39:14.504Z,2.00
2023-04-30T12:40:14.471Z,2.70
2023-04-30T12:41:14.491Z,2.20
2023-04-30T12:42:14.457Z,2.00
2023-04-30T12:43:14.471Z,2.10
2023-04-30T12:44:14.424Z,2.10
2023-04-30T12:45:14.453Z,2.20
2023-04-30T12:46:14.520Z,2.00
2023-04-30T12:47:14.448Z,2.30
2023-04-30T12:48:14.447Z,2.00
2023-04-30T12:49:14.402Z,2.90
2023-04-30T12:50:14.403Z,2.30
2023-04-30T12:51:14.383Z,2.40
2023-04-30T12:52:14.367Z,1.90
2023-04-30T12:53:14.394Z,1.90
2023-04-30T12:54:14.347Z,1.90
2023-04-30T12:55:14.356Z,1.80
2023-04-30T12:56:14.324Z,1.70
2023-04-30T12:57:14.319Z,1.80
2023-04-30T12:58:14.335Z,1.70
2023-04-30T12:59:14.334Z,1.80
2023-04-30T13:00:14.266Z,4.40
2023-04-30T13:01:14.366Z,1.90
2023-04-30T13:02:14.274Z,1.70
2023-04-30T13:03:14.420Z,1.80